METAR Data
IDs: Format: Raw Decoded Include TAF

Data at: 1352 UTC 26 Feb 2021

EBBR 261320Z 32009KT 290V360 9999 SCT036 10/01 Q1035 NOSIG